Flight Track Log - Related Links

Times and Time Zones

All times are in EDT time to prevent confusion due to time zone crossing. See the TRS398 flight status page for this flight to view local times or setup timezone preferences in your user account.

Time Position Orientation Groundspeed Altitude Reporting Facility
EDT Latitude Longitude Course Direction KTS MPH feet Rate Location/Type
Sun 02:43:28 PM 28.4000 -81.3000 249° West 175 201 700  Level Orlando TRACON
Sun 02:44:28 PM 28.3833 -81.3500 249° West 273 314 2,200 2,900 Climbing Orlando TRACON
Sun 02:45:28 PM 28.3833 -81.4333 270° West 243 280 6,500 3,769 Climbing Orlando TRACON
Sun 02:46:29 PM 28.3833 -81.5167 270° West 279 321 9,800 2,315 Climbing Orlando TRACON
Sun 02:48:32 PM 28.4014 -81.7219 276° West 340 391 13,600 2,328 Climbing Jacksonville Center
Sun 02:49:32 PM 28.4711 -81.8206 309° West 352 405 16,900 2,750 Climbing Jacksonville Center
Sun 02:50:32 PM 28.5467 -81.9025 316° Northwest 357 411 19,100 2,350 Climbing Jacksonville Center
Sun 02:51:32 PM 28.6225 -81.9867 316° Northwest 369 425 21,600 2,050 Climbing Jacksonville Center
Sun 02:52:32 PM 28.6939 -82.0619 317° Northwest 379 436 23,200 1,550 Climbing Jacksonville Center
Sun 02:53:32 PM 28.7758 -82.1489 317° Northwest 385 443 24,700 1,150 Climbing Jacksonville Center
Sun 02:54:32 PM 28.8578 -82.2358 317° Northwest 391 450 25,500 900 Climbing Jacksonville Center
Sun 02:55:32 PM 28.9458 -82.3325 316° Northwest 407 468 26,500 900 Climbing Jacksonville Center
Sun 02:56:32 PM 29.0339 -82.4272 317° Northwest 424 488 27,300 1,050 Climbing Jacksonville Center
Sun 02:57:32 PM 29.1283 -82.5314 316° Northwest 432 497 28,600 1,400 Climbing Jacksonville Center
Sun 02:58:32 PM 29.2161 -82.6283 316° Northwest 432 497 30,100 1,550 Climbing Jacksonville Center
Sun 02:59:32 PM 29.3019 -82.7211 317° Northwest 432 497 31,700 950 Climbing Jacksonville Center
Sun 03:00:32 PM 29.3833 -82.8117 316° Northwest 426 490 32,000 150 Climbing Jacksonville Center
Sun 03:01:32 PM 29.4647 -82.9044 315° West 421 484 32,000  Level Jacksonville Center
Sun 03:02:32 PM 29.5525 -82.9975 317° Northwest 415 478 32,000  Level Jacksonville Center
Sun 03:03:32 PM 29.6381 -83.0861 318° Northwest 415 478 32,000 -50 Level Jacksonville Center
Sun 03:04:32 PM 29.7317 -83.1675 323° Northwest 421 484 31,900  Descending Jacksonville Center
Sun 03:05:32 PM 29.8214 -83.2492 322° Northwest 421 484 32,000 50 Climbing Jacksonville Center
Sun 03:06:32 PM 29.9131 -83.3311 322° Northwest 421 484 32,000 -50 Level Jacksonville Center
Sun 03:07:32 PM 30.0067 -83.4156 322° Northwest 421 484 31,900  Descending Jacksonville Center
Sun 03:08:32 PM 30.0981 -83.5000 321° Northwest 421 484 32,000 50 Climbing Jacksonville Center
Sun 03:09:32 PM 30.1917 -83.5822 323° Northwest 421 484 32,000 -50 Level Jacksonville Center
Sun 03:10:32 PM 30.2831 -83.6672 321° Northwest 421 484 31,900  Descending Jacksonville Center
Sun 03:11:32 PM 30.3783 -83.7497 323° Northwest 421 484 32,000 50 Climbing Jacksonville Center
Sun 03:12:32 PM 30.4697 -83.8350 321° Northwest 421 484 32,000  Level Jacksonville Center
Sun 03:13:32 PM 30.5589 -83.9203 321° Northwest 421 484 32,000  Level Jacksonville Center
Sun 03:14:32 PM 30.6542 -84.0058 322° Northwest 421 484 32,000  Level Jacksonville Center
Sun 03:15:32 PM 30.7453 -84.0939 320° Northwest 427 491 32,000  Level Jacksonville Center
Sun 03:16:32 PM 30.8406 -84.1797 322° Northwest 427 491 32,000  Level Jacksonville Center
Sun 03:17:32 PM 30.9314 -84.2658 321° Northwest 427 491 32,000  Level Jacksonville Center
Sun 03:18:32 PM 31.0264 -84.3519 322° Northwest 427 491 32,000 -625 Level Jacksonville Center
Sun 03:20:44 PM 31.2364 -84.5489 321° Northwest 437 503 30,000 -625 Descending Atlanta Center
Sun 03:21:44 PM 31.3319 -84.6369 322° Northwest 437 503 30,000  Level Atlanta Center
Sun 03:22:44 PM 31.4317 -84.7275 322° Northwest 444 511 30,000  Level Atlanta Center
Sun 03:23:44 PM 31.5272 -84.8136 322° Northwest 450 518 30,000  Level Atlanta Center
Sun 03:24:44 PM 31.6142 -84.8997 320° Northwest 455 524 30,000  Level Atlanta Center
Sun 03:25:44 PM 31.7117 -84.9958 320° Northwest 460 529 30,000  Level Atlanta Center
Sun 03:26:44 PM 31.8089 -85.0872 321° Northwest 461 531 30,000  Level Atlanta Center
Sun 03:27:44 PM 31.9125 -85.1839 322° Northwest 447 514 30,000  Level Atlanta Center
Sun 03:28:44 PM 32.0014 -85.2658 322° Northwest 442 509 30,000  Level Atlanta Center
Sun 03:29:44 PM 32.0964 -85.3553 321° Northwest 442 509 30,000  Level Atlanta Center
Sun 03:30:44 PM 32.1914 -85.4475 321° Northwest 442 509 30,000  Level Atlanta Center
Sun 03:31:44 PM 32.2886 -85.5400 321° Northwest 442 509 30,000  Level Atlanta Center
Sun 03:32:44 PM 32.3875 -85.6353 321° Northwest 447 514 30,000  Level Atlanta Center
Sun 03:33:44 PM 32.4822 -85.7256 321° Northwest 447 514 30,000  Level Atlanta Center
Sun 03:34:44 PM 32.5792 -85.8186 321° Northwest 447 514 30,000  Level Atlanta Center
Sun 03:35:44 PM 32.6758 -85.9119 321° Northwest 447 514 30,000  Level Atlanta Center
Sun 03:36:44 PM 32.7703 -86.0078 320° Northwest 447 514 30,000  Level Atlanta Center
Sun 03:37:44 PM 32.8669 -86.1014 321° Northwest 447 514 30,000  Level Atlanta Center
Sun 03:38:44 PM 32.9614 -86.1978 319° Northwest 447 514 30,000  Level Atlanta Center
Sun 03:39:44 PM 33.0578 -86.2892 322° Northwest 447 514 30,000  Level Atlanta Center
Sun 03:40:44 PM 33.1561 -86.3836 321° Northwest 447 514 30,000  Level Atlanta Center
Sun 03:41:44 PM 33.2503 -86.4781 320° Northwest 447 514 30,000  Level Atlanta Center
Sun 03:42:44 PM 33.3547 -86.5806 321° Northwest 447 514 30,000  Level Atlanta Center
Sun 03:43:44 PM 33.4489 -86.6753 320° Northwest 442 509 30,000  Level Atlanta Center
Sun 03:44:44 PM 33.5428 -86.7728 319° Northwest 442 509 30,000  Level Atlanta Center
Sun 03:45:44 PM 33.6608 -86.8067 347° North 424 488 30,000  Level Atlanta Center
Sun 03:46:44 PM 33.7925 -86.7983 North 436 502 30,000  Level Atlanta Center
Sun 03:47:44 PM 33.9181 -86.7925 North 441 507 30,000  Level Atlanta Center
Sun 03:48:44 PM 34.0456 -86.7839 North 441 507 30,000  Level Atlanta Center
Sun 03:49:44 PM 34.1708 -86.7806 North 446 513 30,000  Level Atlanta Center
Sun 03:50:44 PM 34.2878 -86.7742 North 454 522 30,000  Level Atlanta Center
Sun 03:51:44 PM 34.4131 -86.7683 North 454 522 30,000  Level Atlanta Center
Sun 03:52:44 PM 34.5447 -86.7625 North 461 531 30,000  Level Atlanta Center
Sun 03:53:44 PM 34.6700 -86.7564 North 461 531 30,000  Level Atlanta Center
Sun 03:54:44 PM 34.7975 -86.7478 North 461 531 30,000  Level Atlanta Center
Sun 03:55:44 PM 34.9228 -86.7442 North 461 531 30,000  Level Atlanta Center
Sun 03:56:09 PM 34.9900 -86.7400 North 458 527 30,000  Level Memphis Center
Sun 03:57:09 PM 35.1131 -86.7397 360° North 454 522 30,000  Level Memphis Center
Sun 03:58:09 PM 35.2381 -86.7319 North 443 510 30,000  Level Memphis Center
Sun 03:59:09 PM 35.3631 -86.7264 North 443 510 30,000  Level Memphis Center
Sun 04:00:09 PM 35.4881 -86.7211 North 443 510 30,000  Level Memphis Center
Sun 04:01:09 PM 35.6133 -86.7308 356° North 443 510 30,000  Level Memphis Center
Sun 04:02:09 PM 35.7369 -86.7508 353° North 443 510 30,000  Level Memphis Center
Sun 04:03:09 PM 35.8608 -86.7736 352° North 443 510 30,000  Level Memphis Center
Sun 04:04:09 PM 35.9844 -86.7992 351° North 449 517 30,000  Level Memphis Center
Sun 04:05:09 PM 36.1103 -86.8269 350° North 449 517 30,000  Level Memphis Center
Sun 04:06:09 PM 36.2194 -86.8506 350° North 449 517 30,000  Level Memphis Center
Sun 04:07:09 PM 36.3622 -86.8831 350° North 455 524 30,000  Level Memphis Center
Sun 04:08:09 PM 36.4986 -86.9158 349° North 489 563 30,000  Level Memphis Center
Sun 04:09:09 PM 36.6264 -86.9414 351° North 467 537 30,000  Level Memphis Center
Sun 04:10:09 PM 36.7578 -86.9464 358° North 467 537 30,000  Level Memphis Center
Sun 04:11:09 PM 36.8869 -86.9486 359° North 467 537 30,000  Level Memphis Center
Sun 04:12:44 PM 37.0825 -86.9525 359° North 466 536 30,000  Level Indianapolis Center
Sun 04:13:46 PM 37.2114 -86.9564 359° North 459 528 30,000  Level Indianapolis Center
Sun 04:14:48 PM 37.3400 -86.9606 359° North 459 528 30,000  Level Indianapolis Center
Sun 04:15:50 PM 37.4681 -86.9644 359° North 457 526 30,000  Level Indianapolis Center
Sun 04:16:52 PM 37.6064 -86.9706 358° North 453 521 30,000  Level Indianapolis Center
Sun 04:17:54 PM 37.7325 -86.9744 359° North 452 520 30,000  Level Indianapolis Center
Sun 04:18:56 PM 37.8594 -86.9789 358° North 453 521 30,000  Level Indianapolis Center
Sun 04:19:58 PM 37.9856 -86.9822 359° North 451 519 30,000  Level Indianapolis Center
Sun 04:21:00 PM 38.1353 -86.9875 358° North 451 519 30,000  Level Indianapolis Center
Sun 04:22:02 PM 38.2472 -86.9903 359° North 448 516 30,000  Level Indianapolis Center
Sun 04:24:07 PM 38.5039 -86.9994 358° North 453 521 30,000  Level Indianapolis Center
Sun 04:25:09 PM 38.6550 -87.0042 359° North 453 521 30,000  Level Indianapolis Center
Sun 04:26:11 PM 38.7819 -87.0083 359° North 455 524 30,000  Level Indianapolis Center
Sun 04:27:13 PM 38.9083 -87.0133 358° North 453 521 30,000  Level Indianapolis Center
Sun 04:28:15 PM 39.0350 -87.0200 358° North 453 521 30,000  Level Indianapolis Center
Sun 04:29:17 PM 39.1539 -87.0517 348° North 452 520 30,000  Level Indianapolis Center
Sun 04:30:19 PM 39.2775 -87.0861 348° North 453 521 30,000  Level Indianapolis Center
Sun 04:31:21 PM 39.4258 -87.1242 349° North 453 521 30,000  Level Indianapolis Center
Sun 04:32:23 PM 39.5514 -87.1325 357° North 452 520 30,000  Level Indianapolis Center
Sun 04:33:25 PM 39.6767 -87.1267 North 449 517 30,000  Level Indianapolis Center
Sun 04:34:27 PM 39.8000 -87.1189 North 444 511 30,000  Level Indianapolis Center
Sun 04:35:29 PM 39.9256 -87.1100 North 448 516 30,000  Level Indianapolis Center
Sun 04:36:31 PM 40.0494 -87.1014 North 445 512 30,000  Level Indianapolis Center
Sun 04:37:33 PM 40.1994 -87.1111 357° North 449 517 30,000  Level Indianapolis Center
Sun 04:38:34 PM 40.3233 -87.1219 356° North 448 516 30,000  Level Chicago Center
Sun 04:39:36 PM 40.4542 -87.1333 356° North 450 518 30,000  Level Chicago Center
Sun 04:40:38 PM 40.5800 -87.1447 356° North 456 525 30,000  Level Chicago Center
Sun 04:41:40 PM 40.7039 -87.1572 356° North 451 519 30,000  Level Chicago Center
Sun 04:42:42 PM 40.8292 -87.1681 356° North 455 524 30,000  Level Chicago Center
Sun 04:43:44 PM 40.9506 -87.1792 356° North 446 513 30,000  Level Chicago Center
Sun 04:44:47 PM 41.0989 -87.1933 356° North 449 517 30,000  Level Chicago Center
Sun 04:45:49 PM 41.2222 -87.2058 356° North 448 516 30,000  Level Chicago Center
Sun 04:46:51 PM 41.3450 -87.2161 356° North 447 514 30,000  Level Chicago Center
Sun 04:47:53 PM 41.4700 -87.2289 356° North 454 522 30,000 -2,274 Level Chicago Center
Sun 04:48:55 PM 41.6217 -87.2450 355° North 460 529 25,300 -2,952 Descending Chicago Center
Sun 04:49:57 PM 41.7469 -87.2569 356° North 458 527 23,900 -1,839 Descending Chicago Center
Sun 04:50:59 PM 41.8631 -87.2689 356° North 437 503 21,500 -2,371 Descending Chicago Center
Sun 04:52:01 PM 41.9753 -87.2806 356° North 418 481 19,000 -2,468 Descending Chicago Center
Sun 04:53:03 PM 42.0803 -87.2886 357° North 388 447 16,400 -1,440 Descending Chicago Center
Sun 04:54:06 PM 42.2072 -87.3006 356° North 383 441 16,000 -194 Descending Chicago Center
Sun 04:55:07 PM 42.3169 -87.3106 356° North 385 443 16,000 -341 Level Chicago Center
Sun 04:56:09 PM 42.4236 -87.3217 356° North 384 442 15,300 -1,258 Descending Chicago Center
Sun 04:57:11 PM 42.5275 -87.3322 356° North 377 434 13,400 -1,742 Descending Chicago Center
Sun 04:58:13 PM 42.6297 -87.3425 356° North 370 426 11,700 -1,694 Descending Chicago Center
Sun 04:59:15 PM 42.7247 -87.3914 339° North 344 396 9,900 -1,742 Descending Chicago Center
Sun 05:00:17 PM 42.7631 -87.4847 299° West 285 328 8,100 -1,403 Descending Chicago Center
Sun 05:01:19 PM 42.8003 -87.5781 299° West 280 322 7,000 -532 Descending Chicago Center
Sun 05:02:21 PM 42.8386 -87.6739 299° West 286 329 7,000  Level Chicago Center
Sun 05:03:23 PM 42.8761 -87.7678 299° West 283 326 7,000  Level Chicago Center
Sun 05:04:25 PM 42.8675 -87.8633 263° West 261 300 7,000 -435 Level Chicago Center
Sun 05:05:27 PM 42.8394 -87.9636 249° West 240 276 6,100 -1,548 Descending Chicago Center
Sun 05:06:29 PM 42.8253 -88.0439 256° West 228 262 3,800 -1,645 Descending Chicago Center
Sun 05:07:31 PM 42.8822 -88.0750 338° Northwest 230 265 2,700 -732 Descending Chicago Center
Sun 05:08:32 PM 42.9144 -88.0172 53° Northeast 204 235 2,300 -462 Descending Chicago Center
Sun 05:08:49 PM 42.9167 -88.0000 80° East 146 168 2,100 -779 Descending KMKE
Sun 05:09:49 PM 42.9333 -87.9500 66° East 138 159 1,300 -800 Descending KMKE
Sun 05:12:00 PM 42.9469 -87.8971 340° North  Level Estimated

Login

Don't have an account? Register now (free) for customized features, flight alerts, and more!